Normandy, Tennessee
Current Conditions -  °F | °C
As of 9:15 PM on Thursday 27 Nov 2014 (Local Time) from KTHA Reporting Station
Overcast Overcast  
Wind Chill: 20°   Ceiling: 3500
Heat Index: 27°   Visibility: 10mi
Dew Point: 19°   Wind: 6mph
Humidity: 74%   Direction: 360°N
Pressure: 30.45"   Gusts: NA
Location:  35.45°N, 86.26°W
Report Text: KTHA 280315Z AUTO 36005KT 10SM OVC035 M03/M07 A3045 RMK
Loading
Personal Weather Stations






























Interactive Weather Map New forecast layout! Learn more

10-Day Weather Forecast

Advertisements
Track Severe Weather on mobile